sensor_id;sensor_type;location;lat;lon;timestamp;P1;durP1;ratioP1;P2;durP2;ratioP2
68921;SDS011;55959;51.244;5.724;2022-10-15T00:00:27;7.37;;;6.77;;
68921;SDS011;55959;51.244;5.724;2022-10-15T00:02:53;8.20;;;7.50;;
68921;SDS011;55959;51.244;5.724;2022-10-15T00:05:19;8.43;;;7.63;;
68921;SDS011;55959;51.244;5.724;2022-10-15T00:07:46;7.90;;;7.30;;
68921;SDS011;55959;51.244;5.724;2022-10-15T00:10:12;7.83;;;7.13;;
68921;SDS011;55959;51.244;5.724;2022-10-15T00:12:39;8.37;;;7.67;;
68921;SDS011;55959;51.244;5.724;2022-10-15T00:15:06;8.23;;;7.53;;
68921;SDS011;55959;51.244;5.724;2022-10-15T00:17:33;8.03;;;7.33;;
68921;SDS011;55959;51.244;5.724;2022-10-15T00:20:00;8.10;;;7.40;;
68921;SDS011;55959;51.244;5.724;2022-10-15T00:22:32;8.27;;;7.57;;
68921;SDS011;55959;51.244;5.724;2022-10-15T00:24:58;8.13;;;7.43;;
68921;SDS011;55959;51.244;5.724;2022-10-15T00:27:24;7.70;;;7.10;;
68921;SDS011;55959;51.244;5.724;2022-10-15T00:29:49;6.77;;;6.17;;
68921;SDS011;55959;51.244;5.724;2022-10-15T00:32:15;7.27;;;6.67;;
68921;SDS011;55959;51.244;5.724;2022-10-15T00:34:42;8.30;;;7.60;;
68921;SDS011;55959;51.244;5.724;2022-10-15T00:37:07;7.60;;;6.90;;
68921;SDS011;55959;51.244;5.724;2022-10-15T00:39:34;7.30;;;6.63;;
68921;SDS011;55959;51.244;5.724;2022-10-15T00:42:00;7.70;;;7.00;;
68921;SDS011;55959;51.244;5.724;2022-10-15T00:52:23;7.97;;;7.27;;
68921;SDS011;55959;51.244;5.724;2022-10-15T00:55:08;8.20;;;7.57;;
68921;SDS011;55959;51.244;5.724;2022-10-15T00:57:44;8.03;;;7.33;;
68921;SDS011;55959;51.244;5.724;2022-10-15T01:00:13;7.83;;;7.13;;
68921;SDS011;55959;51.244;5.724;2022-10-15T01:02:41;7.60;;;7.00;;
68921;SDS011;55959;51.244;5.724;2022-10-15T01:05:10;7.63;;;6.93;;
68921;SDS011;55959;51.244;5.724;2022-10-15T01:07:37;8.03;;;7.23;;
68921;SDS011;55959;51.244;5.724;2022-10-15T01:10:04;8.07;;;7.47;;
68921;SDS011;55959;51.244;5.724;2022-10-15T01:17:56;7.67;;;6.97;;
68921;SDS011;55959;51.244;5.724;2022-10-15T01:29:47;7.83;;;7.03;;
68921;SDS011;55959;51.244;5.724;2022-10-15T01:32:29;8.00;;;7.30;;
68921;SDS011;55959;51.244;5.724;2022-10-15T01:38:29;7.40;;;6.80;;
68921;SDS011;55959;51.244;5.724;2022-10-15T01:41:36;7.60;;;7.00;;
68921;SDS011;55959;51.244;5.724;2022-10-15T01:44:19;7.30;;;6.67;;
68921;SDS011;55959;51.244;5.724;2022-10-15T01:47:20;6.70;;;6.10;;
68921;SDS011;55959;51.244;5.724;2022-10-15T01:49:53;6.47;;;5.97;;
68921;SDS011;55959;51.244;5.724;2022-10-15T01:52:22;6.40;;;5.90;;
68921;SDS011;55959;51.244;5.724;2022-10-15T01:54:53;7.03;;;6.33;;
68921;SDS011;55959;51.244;5.724;2022-10-15T01:57:21;7.03;;;6.37;;
68921;SDS011;55959;51.244;5.724;2022-10-15T01:59:50;7.03;;;6.43;;
68921;SDS011;55959;51.244;5.724;2022-10-15T02:02:16;5.60;;;5.20;;
68921;SDS011;55959;51.244;5.724;2022-10-15T02:04:42;6.43;;;5.83;;
68921;SDS011;55959;51.244;5.724;2022-10-15T02:07:09;5.83;;;5.33;;
68921;SDS011;55959;51.244;5.724;2022-10-15T02:09:45;6.40;;;5.90;;
68921;SDS011;55959;51.244;5.724;2022-10-15T02:12:30;5.80;;;5.30;;
68921;SDS011;55959;51.244;5.724;2022-10-15T02:23:25;5.73;;;5.23;;
68921;SDS011;55959;51.244;5.724;2022-10-15T02:26:03;5.77;;;5.27;;
68921;SDS011;55959;51.244;5.724;2022-10-15T02:28:31;5.50;;;5.00;;
68921;SDS011;55959;51.244;5.724;2022-10-15T02:31:01;5.87;;;5.37;;
68921;SDS011;55959;51.244;5.724;2022-10-15T02:33:30;5.77;;;5.23;;
68921;SDS011;55959;51.244;5.724;2022-10-15T02:35:57;5.47;;;5.07;;
68921;SDS011;55959;51.244;5.724;2022-10-15T02:38:24;5.40;;;4.90;;
68921;SDS011;55959;51.244;5.724;2022-10-15T02:40:52;5.40;;;4.90;;
68921;SDS011;55959;51.244;5.724;2022-10-15T02:43:19;5.67;;;5.17;;
68921;SDS011;55959;51.244;5.724;2022-10-15T02:45:47;5.83;;;5.33;;
68921;SDS011;55959;51.244;5.724;2022-10-15T02:48:13;5.83;;;5.33;;
68921;SDS011;55959;51.244;5.724;2022-10-15T02:50:40;5.93;;;4.93;;
68921;SDS011;55959;51.244;5.724;2022-10-15T02:53:06;5.93;;;5.40;;
68921;SDS011;55959;51.244;5.724;2022-10-15T02:55:31;5.67;;;5.17;;
68921;SDS011;55959;51.244;5.724;2022-10-15T02:57:57;5.93;;;5.43;;
68921;SDS011;55959;51.244;5.724;2022-10-15T03:00:23;5.97;;;5.57;;
68921;SDS011;55959;51.244;5.724;2022-10-15T03:02:49;5.90;;;5.40;;
68921;SDS011;55959;51.244;5.724;2022-10-15T03:05:15;5.77;;;5.33;;
68921;SDS011;55959;51.244;5.724;2022-10-15T03:07:40;6.10;;;5.60;;
68921;SDS011;55959;51.244;5.724;2022-10-15T03:10:06;6.00;;;5.40;;
68921;SDS011;55959;51.244;5.724;2022-10-15T03:12:33;6.40;;;5.80;;
68921;SDS011;55959;51.244;5.724;2022-10-15T03:14:59;6.60;;;6.03;;
68921;SDS011;55959;51.244;5.724;2022-10-15T03:17:24;6.33;;;5.73;;
68921;SDS011;55959;51.244;5.724;2022-10-15T03:19:50;6.37;;;5.87;;
68921;SDS011;55959;51.244;5.724;2022-10-15T03:22:16;6.37;;;5.87;;
68921;SDS011;55959;51.244;5.724;2022-10-15T03:24:42;7.10;;;6.40;;
68921;SDS011;55959;51.244;5.724;2022-10-15T03:27:07;7.53;;;6.83;;
68921;SDS011;55959;51.244;5.724;2022-10-15T03:29:33;7.30;;;6.70;;
68921;SDS011;55959;51.244;5.724;2022-10-15T03:31:59;8.43;;;6.90;;
68921;SDS011;55959;51.244;5.724;2022-10-15T03:34:24;7.10;;;6.50;;
68921;SDS011;55959;51.244;5.724;2022-10-15T03:36:50;8.13;;;7.33;;
68921;SDS011;55959;51.244;5.724;2022-10-15T03:39:16;7.80;;;7.10;;
68921;SDS011;55959;51.244;5.724;2022-10-15T03:41:42;8.23;;;7.53;;
68921;SDS011;55959;51.244;5.724;2022-10-15T03:44:07;8.00;;;7.20;;
68921;SDS011;55959;51.244;5.724;2022-10-15T03:46:35;8.83;;;8.03;;
68921;SDS011;55959;51.244;5.724;2022-10-15T03:49:01;8.20;;;7.50;;
68921;SDS011;55959;51.244;5.724;2022-10-15T03:51:27;9.03;;;8.20;;
68921;SDS011;55959;51.244;5.724;2022-10-15T03:53:53;9.03;;;8.13;;
68921;SDS011;55959;51.244;5.724;2022-10-15T03:56:18;8.57;;;7.87;;
68921;SDS011;55959;51.244;5.724;2022-10-15T03:58:44;9.00;;;8.20;;
68921;SDS011;55959;51.244;5.724;2022-10-15T04:01:11;9.73;;;8.83;;
68921;SDS011;55959;51.244;5.724;2022-10-15T04:03:40;9.80;;;8.90;;
68921;SDS011;55959;51.244;5.724;2022-10-15T04:06:06;9.60;;;8.70;;
68921;SDS011;55959;51.244;5.724;2022-10-15T04:08:32;10.50;;;9.50;;
68921;SDS011;55959;51.244;5.724;2022-10-15T04:10:58;11.03;;;9.93;;
68921;SDS011;55959;51.244;5.724;2022-10-15T04:13:24;12.10;;;10.33;;
68921;SDS011;55959;51.244;5.724;2022-10-15T04:15:51;11.13;;;10.10;;
68921;SDS011;55959;51.244;5.724;2022-10-15T04:18:17;11.50;;;10.40;;
68921;SDS011;55959;51.244;5.724;2022-10-15T04:20:45;11.47;;;10.37;;
68921;SDS011;55959;51.244;5.724;2022-10-15T04:23:15;11.53;;;10.43;;
68921;SDS011;55959;51.244;5.724;2022-10-15T04:25:41;11.60;;;10.47;;
68921;SDS011;55959;51.244;5.724;2022-10-15T04:28:07;11.63;;;10.33;;
68921;SDS011;55959;51.244;5.724;2022-10-15T04:30:33;11.97;;;10.67;;
68921;SDS011;55959;51.244;5.724;2022-10-15T04:32:59;12.50;;;11.20;;
68921;SDS011;55959;51.244;5.724;2022-10-15T04:35:25;11.80;;;10.60;;
68921;SDS011;55959;51.244;5.724;2022-10-15T04:37:51;12.53;;;11.33;;
68921;SDS011;55959;51.244;5.724;2022-10-15T04:40:17;12.67;;;11.47;;
68921;SDS011;55959;51.244;5.724;2022-10-15T04:42:43;12.80;;;11.53;;
68921;SDS011;55959;51.244;5.724;2022-10-15T04:45:10;12.07;;;10.97;;
68921;SDS011;55959;51.244;5.724;2022-10-15T04:47:35;12.43;;;11.23;;
68921;SDS011;55959;51.244;5.724;2022-10-15T04:50:01;13.40;;;12.00;;
68921;SDS011;55959;51.244;5.724;2022-10-15T04:52:27;12.90;;;11.60;;
68921;SDS011;55959;51.244;5.724;2022-10-15T04:54:53;13.27;;;11.97;;
68921;SDS011;55959;51.244;5.724;2022-10-15T04:57:18;13.10;;;11.87;;
68921;SDS011;55959;51.244;5.724;2022-10-15T04:59:44;13.17;;;11.87;;
68921;SDS011;55959;51.244;5.724;2022-10-15T05:02:10;12.23;;;11.13;;
68921;SDS011;55959;51.244;5.724;2022-10-15T05:04:36;12.73;;;11.43;;
68921;SDS011;55959;51.244;5.724;2022-10-15T05:07:01;12.23;;;11.03;;
68921;SDS011;55959;51.244;5.724;2022-10-15T05:09:27;11.97;;;10.80;;
68921;SDS011;55959;51.244;5.724;2022-10-15T05:11:53;11.90;;;10.80;;
68921;SDS011;55959;51.244;5.724;2022-10-15T05:14:20;13.17;;;11.97;;
68921;SDS011;55959;51.244;5.724;2022-10-15T05:16:46;12.27;;;11.10;;
68921;SDS011;55959;51.244;5.724;2022-10-15T05:19:12;11.27;;;10.23;;
68921;SDS011;55959;51.244;5.724;2022-10-15T05:21:38;10.83;;;9.83;;
68921;SDS011;55959;51.244;5.724;2022-10-15T05:24:03;11.43;;;10.33;;
68921;SDS011;55959;51.244;5.724;2022-10-15T05:26:30;13.10;;;11.20;;
68921;SDS011;55959;51.244;5.724;2022-10-15T05:28:57;11.00;;;10.00;;
68921;SDS011;55959;51.244;5.724;2022-10-15T05:31:25;11.43;;;10.30;;
68921;SDS011;55959;51.244;5.724;2022-10-15T05:33:53;11.37;;;10.27;;
68921;SDS011;55959;51.244;5.724;2022-10-15T05:36:21;11.60;;;10.50;;
68921;SDS011;55959;51.244;5.724;2022-10-15T05:38:59;10.77;;;9.77;;
68921;SDS011;55959;51.244;5.724;2022-10-15T05:41:28;11.83;;;10.63;;
68921;SDS011;55959;51.244;5.724;2022-10-15T05:43:55;11.13;;;10.03;;
68921;SDS011;55959;51.244;5.724;2022-10-15T05:46:22;11.00;;;10.00;;
68921;SDS011;55959;51.244;5.724;2022-10-15T05:48:49;10.70;;;9.60;;
68921;SDS011;55959;51.244;5.724;2022-10-15T05:51:16;11.33;;;10.13;;
68921;SDS011;55959;51.244;5.724;2022-10-15T05:53:42;11.33;;;10.23;;
68921;SDS011;55959;51.244;5.724;2022-10-15T05:56:10;11.07;;;10.07;;
68921;SDS011;55959;51.244;5.724;2022-10-15T05:58:39;10.83;;;9.73;;
68921;SDS011;55959;51.244;5.724;2022-10-15T06:01:07;11.57;;;10.47;;
68921;SDS011;55959;51.244;5.724;2022-10-15T06:03:35;11.13;;;10.03;;
68921;SDS011;55959;51.244;5.724;2022-10-15T06:06:01;11.53;;;10.33;;
68921;SDS011;55959;51.244;5.724;2022-10-15T06:08:28;11.57;;;10.37;;
68921;SDS011;55959;51.244;5.724;2022-10-15T06:10:54;11.03;;;9.93;;
68921;SDS011;55959;51.244;5.724;2022-10-15T06:13:26;10.87;;;9.83;;
68921;SDS011;55959;51.244;5.724;2022-10-15T06:15:52;11.47;;;10.37;;
68921;SDS011;55959;51.244;5.724;2022-10-15T06:18:17;10.77;;;9.67;;
68921;SDS011;55959;51.244;5.724;2022-10-15T06:20:43;12.23;;;10.90;;
68921;SDS011;55959;51.244;5.724;2022-10-15T06:23:15;12.53;;;11.20;;
68921;SDS011;55959;51.244;5.724;2022-10-15T06:25:40;11.27;;;10.27;;
68921;SDS011;55959;51.244;5.724;2022-10-15T06:28:06;11.43;;;10.33;;
68921;SDS011;55959;51.244;5.724;2022-10-15T06:30:33;11.57;;;10.37;;
68921;SDS011;55959;51.244;5.724;2022-10-15T06:32:59;12.20;;;10.90;;
68921;SDS011;55959;51.244;5.724;2022-10-15T06:35:25;10.43;;;9.43;;
68921;SDS011;55959;51.244;5.724;2022-10-15T06:37:54;11.53;;;10.33;;
68921;SDS011;55959;51.244;5.724;2022-10-15T06:40:20;10.83;;;9.80;;
68921;SDS011;55959;51.244;5.724;2022-10-15T06:42:46;10.20;;;9.20;;
68921;SDS011;55959;51.244;5.724;2022-10-15T06:45:11;9.93;;;8.93;;
68921;SDS011;55959;51.244;5.724;2022-10-15T06:47:41;9.57;;;8.60;;
68921;SDS011;55959;51.244;5.724;2022-10-15T06:50:07;10.27;;;9.27;;
68921;SDS011;55959;51.244;5.724;2022-10-15T06:52:33;9.63;;;8.73;;
68921;SDS011;55959;51.244;5.724;2022-10-15T06:54:59;9.70;;;8.73;;
68921;SDS011;55959;51.244;5.724;2022-10-15T06:57:28;9.53;;;8.53;;
68921;SDS011;55959;51.244;5.724;2022-10-15T06:59:54;9.50;;;8.23;;
68921;SDS011;55959;51.244;5.724;2022-10-15T07:02:20;9.23;;;8.33;;
68921;SDS011;55959;51.244;5.724;2022-10-15T07:04:46;10.17;;;8.47;;
68921;SDS011;55959;51.244;5.724;2022-10-15T07:07:12;8.80;;;8.00;;
68921;SDS011;55959;51.244;5.724;2022-10-15T07:09:38;9.53;;;8.63;;
68921;SDS011;55959;51.244;5.724;2022-10-15T07:12:04;9.60;;;8.43;;
68921;SDS011;55959;51.244;5.724;2022-10-15T07:14:30;9.20;;;7.30;;
68921;SDS011;55959;51.244;5.724;2022-10-15T07:16:56;9.20;;;8.30;;
68921;SDS011;55959;51.244;5.724;2022-10-15T07:19:23;8.80;;;7.67;;
68921;SDS011;55959;51.244;5.724;2022-10-15T07:21:49;8.40;;;7.50;;
68921;SDS011;55959;51.244;5.724;2022-10-15T07:24:15;9.00;;;7.83;;
68921;SDS011;55959;51.244;5.724;2022-10-15T07:26:41;8.07;;;7.27;;
68921;SDS011;55959;51.244;5.724;2022-10-15T07:29:06;8.03;;;7.23;;
68921;SDS011;55959;51.244;5.724;2022-10-15T07:31:32;7.90;;;7.10;;
68921;SDS011;55959;51.244;5.724;2022-10-15T07:33:58;7.90;;;7.13;;
68921;SDS011;55959;51.244;5.724;2022-10-15T07:36:24;7.47;;;6.77;;
68921;SDS011;55959;51.244;5.724;2022-10-15T07:38:50;8.30;;;7.20;;
68921;SDS011;55959;51.244;5.724;2022-10-15T07:41:16;7.60;;;6.80;;
68921;SDS011;55959;51.244;5.724;2022-10-15T07:43:41;7.70;;;6.90;;
68921;SDS011;55959;51.244;5.724;2022-10-15T07:46:08;7.43;;;6.73;;
68921;SDS011;55959;51.244;5.724;2022-10-15T07:48:34;6.80;;;6.10;;
68921;SDS011;55959;51.244;5.724;2022-10-15T07:51:02;6.93;;;5.47;;
68921;SDS011;55959;51.244;5.724;2022-10-15T07:53:30;6.70;;;5.93;;
68921;SDS011;55959;51.244;5.724;2022-10-15T07:56:00;6.77;;;6.07;;
68921;SDS011;55959;51.244;5.724;2022-10-15T07:58:30;6.97;;;6.00;;
68921;SDS011;55959;51.244;5.724;2022-10-15T08:00:58;6.00;;;5.40;;
68921;SDS011;55959;51.244;5.724;2022-10-15T08:03:26;5.80;;;5.17;;
68921;SDS011;55959;51.244;5.724;2022-10-15T08:05:52;6.23;;;5.30;;
68921;SDS011;55959;51.244;5.724;2022-10-15T08:08:19;6.20;;;5.60;;
68921;SDS011;55959;51.244;5.724;2022-10-15T08:10:46;6.20;;;5.20;;
68921;SDS011;55959;51.244;5.724;2022-10-15T08:13:12;7.23;;;6.00;;
68921;SDS011;55959;51.244;5.724;2022-10-15T08:15:41;6.93;;;5.97;;
68921;SDS011;55959;51.244;5.724;2022-10-15T08:18:07;7.67;;;6.03;;
68921;SDS011;55959;51.244;5.724;2022-10-15T08:20:34;6.50;;;5.83;;
68921;SDS011;55959;51.244;5.724;2022-10-15T08:23:03;6.60;;;5.90;;
68921;SDS011;55959;51.244;5.724;2022-10-15T08:25:31;6.63;;;5.60;;
68921;SDS011;55959;51.244;5.724;2022-10-15T08:27:57;8.83;;;7.13;;
68921;SDS011;55959;51.244;5.724;2022-10-15T08:30:24;8.67;;;6.93;;
68921;SDS011;55959;51.244;5.724;2022-10-15T08:32:49;8.17;;;6.97;;
68921;SDS011;55959;51.244;5.724;2022-10-15T08:35:15;9.83;;;7.63;;
68921;SDS011;55959;51.244;5.724;2022-10-15T08:37:41;8.90;;;7.00;;
68921;SDS011;55959;51.244;5.724;2022-10-15T08:40:08;8.87;;;7.40;;
68921;SDS011;55959;51.244;5.724;2022-10-15T08:42:41;8.67;;;6.93;;
68921;SDS011;55959;51.244;5.724;2022-10-15T08:45:11;8.83;;;6.97;;
68921;SDS011;55959;51.244;5.724;2022-10-15T08:47:45;9.63;;;7.07;;
68921;SDS011;55959;51.244;5.724;2022-10-15T08:50:27;8.43;;;6.30;;
68921;SDS011;55959;51.244;5.724;2022-10-15T08:53:05;10.47;;;7.50;;
68921;SDS011;55959;51.244;5.724;2022-10-15T08:55:39;11.70;;;8.07;;
68921;SDS011;55959;51.244;5.724;2022-10-15T08:58:19;10.07;;;7.10;;
68921;SDS011;55959;51.244;5.724;2022-10-15T09:00:53;8.93;;;7.13;;
68921;SDS011;55959;51.244;5.724;2022-10-15T09:03:47;9.63;;;6.63;;
68921;SDS011;55959;51.244;5.724;2022-10-15T09:06:43;8.43;;;6.57;;
68921;SDS011;55959;51.244;5.724;2022-10-15T09:09:19;7.20;;;5.90;;
68921;SDS011;55959;51.244;5.724;2022-10-15T09:14:57;6.33;;;5.20;;
68921;SDS011;55959;51.244;5.724;2022-10-15T09:17:25;7.80;;;5.50;;
68921;SDS011;55959;51.244;5.724;2022-10-15T09:19:55;7.40;;;5.43;;
68921;SDS011;55959;51.244;5.724;2022-10-15T09:22:26;6.63;;;4.90;;
68921;SDS011;55959;51.244;5.724;2022-10-15T09:24:55;7.50;;;5.33;;
68921;SDS011;55959;51.244;5.724;2022-10-15T09:30:22;6.00;;;3.93;;
68921;SDS011;55959;51.244;5.724;2022-10-15T09:33:10;5.27;;;3.40;;
68921;SDS011;55959;51.244;5.724;2022-10-15T09:36:40;4.60;;;3.10;;
68921;SDS011;55959;51.244;5.724;2022-10-15T09:38:44;3.33;;;2.53;;
68921;SDS011;55959;51.244;5.724;2022-10-15T09:44:54;4.13;;;2.60;;
68921;SDS011;55959;51.244;5.724;2022-10-15T09:47:26;3.60;;;2.70;;
68921;SDS011;55959;51.244;5.724;2022-10-15T09:49:55;3.87;;;2.97;;
68921;SDS011;55959;51.244;5.724;2022-10-15T09:54:56;3.27;;;2.10;;
68921;SDS011;55959;51.244;5.724;2022-10-15T09:57:57;1.80;;;1.60;;
68921;SDS011;55959;51.244;5.724;2022-10-15T10:03:17;2.17;;;1.70;;
68921;SDS011;55959;51.244;5.724;2022-10-15T10:05:43;3.00;;;1.77;;
68921;SDS011;55959;51.244;5.724;2022-10-15T10:10:43;1.90;;;1.50;;
68921;SDS011;55959;51.244;5.724;2022-10-15T10:13:21;3.10;;;1.80;;
68921;SDS011;55959;51.244;5.724;2022-10-15T10:15:53;4.43;;;1.60;;
68921;SDS011;55959;51.244;5.724;2022-10-15T10:18:21;1.60;;;1.33;;
68921;SDS011;55959;51.244;5.724;2022-10-15T10:23:27;2.23;;;1.07;;
68921;SDS011;55959;51.244;5.724;2022-10-15T10:26:02;1.70;;;1.30;;
68921;SDS011;55959;51.244;5.724;2022-10-15T10:28:31;1.70;;;1.00;;
68921;SDS011;55959;51.244;5.724;2022-10-15T10:31:02;1.50;;;0.90;;
68921;SDS011;55959;51.244;5.724;2022-10-15T10:36:06;1.30;;;1.00;;
68921;SDS011;55959;51.244;5.724;2022-10-15T10:44:38;0.90;;;0.77;;
68921;SDS011;55959;51.244;5.724;2022-10-15T10:47:14;0.97;;;0.60;;
68921;SDS011;55959;51.244;5.724;2022-10-15T10:52:29;1.93;;;0.70;;
68921;SDS011;55959;51.244;5.724;2022-10-15T10:55:18;1.10;;;0.50;;
68921;SDS011;55959;51.244;5.724;2022-10-15T10:57:53;0.70;;;0.40;;
68921;SDS011;55959;51.244;5.724;2022-10-15T11:02:56;0.30;;;0.23;;
68921;SDS011;55959;51.244;5.724;2022-10-15T11:05:26;0.70;;;0.30;;
68921;SDS011;55959;51.244;5.724;2022-10-15T11:11:47;0.50;;;0.33;;
68921;SDS011;55959;51.244;5.724;2022-10-15T11:19:46;0.40;;;0.30;;
68921;SDS011;55959;51.244;5.724;2022-10-15T11:25:18;0.20;;;0.20;;
68921;SDS011;55959;51.244;5.724;2022-10-15T11:43:23;0.30;;;0.30;;
68921;SDS011;55959;51.244;5.724;2022-10-15T11:57:12;1.05;;;0.30;;
68921;SDS011;55959;51.244;5.724;2022-10-15T11:59:47;0.30;;;0.30;;
68921;SDS011;55959;51.244;5.724;2022-10-15T12:02:23;0.80;;;0.40;;
68921;SDS011;55959;51.244;5.724;2022-10-15T12:05:04;0.22;;;0.22;;
68921;SDS011;55959;51.244;5.724;2022-10-15T12:07:32;0.40;;;0.20;;
68921;SDS011;55959;51.244;5.724;2022-10-15T12:12:53;0.17;;;0.17;;
68921;SDS011;55959;51.244;5.724;2022-10-15T12:15:54;1.75;;;0.30;;
68921;SDS011;55959;51.244;5.724;2022-10-15T12:29:47;2.05;;;0.57;;
68921;SDS011;55959;51.244;5.724;2022-10-15T12:35:16;0.20;;;0.20;;
68921;SDS011;55959;51.244;5.724;2022-10-15T12:37:46;1.35;;;0.40;;
68921;SDS011;55959;51.244;5.724;2022-10-15T12:45:25;0.22;;;0.22;;
68921;SDS011;55959;51.244;5.724;2022-10-15T12:50:28;0.30;;;0.20;;
68921;SDS011;55959;51.244;5.724;2022-10-15T12:58:46;0.28;;;0.28;;
68921;SDS011;55959;51.244;5.724;2022-10-15T13:08:46;0.30;;;0.30;;
68921;SDS011;55959;51.244;5.724;2022-10-15T13:11:30;0.77;;;0.30;;
68921;SDS011;55959;51.244;5.724;2022-10-15T13:16:53;1.15;;;0.40;;
68921;SDS011;55959;51.244;5.724;2022-10-15T13:19:24;0.47;;;0.43;;
68921;SDS011;55959;51.244;5.724;2022-10-15T13:24:29;0.85;;;0.50;;
68921;SDS011;55959;51.244;5.724;2022-10-15T13:27:13;0.45;;;0.40;;
68921;SDS011;55959;51.244;5.724;2022-10-15T13:29:55;1.67;;;0.45;;
68921;SDS011;55959;51.244;5.724;2022-10-15T13:32:26;0.65;;;0.30;;
68921;SDS011;55959;51.244;5.724;2022-10-15T13:34:56;0.30;;;0.25;;
68921;SDS011;55959;51.244;5.724;2022-10-15T13:37:26;0.40;;;0.35;;
68921;SDS011;55959;51.244;5.724;2022-10-15T13:39:59;0.30;;;0.30;;
68921;SDS011;55959;51.244;5.724;2022-10-15T13:42:28;0.85;;;0.52;;
68921;SDS011;55959;51.244;5.724;2022-10-15T13:44:58;1.00;;;0.50;;
68921;SDS011;55959;51.244;5.724;2022-10-15T13:47:47;0.55;;;0.40;;
68921;SDS011;55959;51.244;5.724;2022-10-15T13:50:29;0.40;;;0.40;;
68921;SDS011;55959;51.244;5.724;2022-10-15T13:56:18;0.93;;;0.40;;
68921;SDS011;55959;51.244;5.724;2022-10-15T13:58:52;0.38;;;0.38;;
68921;SDS011;55959;51.244;5.724;2022-10-15T14:01:20;0.70;;;0.50;;
68921;SDS011;55959;51.244;5.724;2022-10-15T14:11:36;2.15;;;0.70;;
68921;SDS011;55959;51.244;5.724;2022-10-15T14:14:04;1.10;;;1.00;;
68921;SDS011;55959;51.244;5.724;2022-10-15T14:17:05;1.70;;;1.48;;
68921;SDS011;55959;51.244;5.724;2022-10-15T14:19:35;1.77;;;1.05;;
68921;SDS011;55959;51.244;5.724;2022-10-15T14:22:04;1.10;;;1.00;;
68921;SDS011;55959;51.244;5.724;2022-10-15T14:24:38;1.52;;;1.08;;
68921;SDS011;55959;51.244;5.724;2022-10-15T14:29:44;0.70;;;0.70;;
68921;SDS011;55959;51.244;5.724;2022-10-15T14:32:25;1.63;;;1.13;;
68921;SDS011;55959;51.244;5.724;2022-10-15T14:35:53;1.35;;;0.98;;
68921;SDS011;55959;51.244;5.724;2022-10-15T14:40:29;2.17;;;1.10;;
68921;SDS011;55959;51.244;5.724;2022-10-15T14:43:15;0.70;;;0.70;;
68921;SDS011;55959;51.244;5.724;2022-10-15T14:45:53;0.82;;;0.70;;
68921;SDS011;55959;51.244;5.724;2022-10-15T14:48:26;0.75;;;0.60;;
68921;SDS011;55959;51.244;5.724;2022-10-15T14:50:59;0.80;;;0.60;;
68921;SDS011;55959;51.244;5.724;2022-10-15T14:53:35;1.10;;;0.40;;
68921;SDS011;55959;51.244;5.724;2022-10-15T14:56:08;0.60;;;0.30;;
68921;SDS011;55959;51.244;5.724;2022-10-15T14:58:46;0.93;;;0.40;;
68921;SDS011;55959;51.244;5.724;2022-10-15T15:01:19;0.50;;;0.32;;
68921;SDS011;55959;51.244;5.724;2022-10-15T15:03:49;0.40;;;0.35;;
68921;SDS011;55959;51.244;5.724;2022-10-15T15:06:19;0.90;;;0.50;;
68921;SDS011;55959;51.244;5.724;2022-10-15T15:08:45;0.93;;;0.40;;
68921;SDS011;55959;51.244;5.724;2022-10-15T15:11:12;1.08;;;0.70;;
68921;SDS011;55959;51.244;5.724;2022-10-15T15:13:44;0.82;;;0.60;;
68921;SDS011;55959;51.244;5.724;2022-10-15T15:16:11;4.13;;;2.92;;
68921;SDS011;55959;51.244;5.724;2022-10-15T15:18:39;2.58;;;2.38;;
68921;SDS011;55959;51.244;5.724;2022-10-15T15:21:12;2.10;;;1.45;;
68921;SDS011;55959;51.244;5.724;2022-10-15T15:23:44;1.80;;;1.05;;
68921;SDS011;55959;51.244;5.724;2022-10-15T15:26:10;1.48;;;0.55;;
68921;SDS011;55959;51.244;5.724;2022-10-15T15:28:36;0.80;;;0.50;;
68921;SDS011;55959;51.244;5.724;2022-10-15T15:31:03;1.63;;;0.63;;
68921;SDS011;55959;51.244;5.724;2022-10-15T15:33:32;0.60;;;0.50;;
68921;SDS011;55959;51.244;5.724;2022-10-15T15:36:15;0.80;;;0.60;;
68921;SDS011;55959;51.244;5.724;2022-10-15T15:38:42;0.60;;;0.50;;
68921;SDS011;55959;51.244;5.724;2022-10-15T15:43:43;0.75;;;0.38;;
68921;SDS011;55959;51.244;5.724;2022-10-15T15:46:10;0.75;;;0.50;;
68921;SDS011;55959;51.244;5.724;2022-10-15T15:48:36;1.10;;;0.50;;
68921;SDS011;55959;51.244;5.724;2022-10-15T15:51:06;0.40;;;0.40;;
68921;SDS011;55959;51.244;5.724;2022-10-15T15:53:45;1.83;;;0.40;;
68921;SDS011;55959;51.244;5.724;2022-10-15T15:56:12;1.00;;;0.60;;
68921;SDS011;55959;51.244;5.724;2022-10-15T15:58:38;0.45;;;0.45;;
68921;SDS011;55959;51.244;5.724;2022-10-15T16:01:03;0.93;;;0.60;;
68921;SDS011;55959;51.244;5.724;2022-10-15T16:03:29;1.23;;;0.60;;
68921;SDS011;55959;51.244;5.724;2022-10-15T16:05:55;0.85;;;0.50;;
68921;SDS011;55959;51.244;5.724;2022-10-15T16:08:21;1.52;;;0.50;;
68921;SDS011;55959;51.244;5.724;2022-10-15T16:10:46;1.23;;;0.40;;
68921;SDS011;55959;51.244;5.724;2022-10-15T16:13:12;0.93;;;0.60;;
68921;SDS011;55959;51.244;5.724;2022-10-15T16:15:38;1.20;;;0.47;;
68921;SDS011;55959;51.244;5.724;2022-10-15T16:18:04;1.00;;;0.40;;
68921;SDS011;55959;51.244;5.724;2022-10-15T16:20:29;0.68;;;0.40;;
68921;SDS011;55959;51.244;5.724;2022-10-15T16:22:55;1.30;;;0.57;;
68921;SDS011;55959;51.244;5.724;2022-10-15T16:25:21;1.00;;;0.50;;
68921;SDS011;55959;51.244;5.724;2022-10-15T16:27:47;1.15;;;0.63;;
68921;SDS011;55959;51.244;5.724;2022-10-15T16:30:13;0.82;;;0.57;;
68921;SDS011;55959;51.244;5.724;2022-10-15T16:32:40;0.70;;;0.60;;
68921;SDS011;55959;51.244;5.724;2022-10-15T16:35:07;0.55;;;0.52;;
68921;SDS011;55959;51.244;5.724;2022-10-15T16:37:33;1.20;;;0.70;;
68921;SDS011;55959;51.244;5.724;2022-10-15T16:39:59;2.13;;;0.90;;
68921;SDS011;55959;51.244;5.724;2022-10-15T16:42:24;1.25;;;0.90;;
68921;SDS011;55959;51.244;5.724;2022-10-15T16:44:51;1.23;;;0.80;;
68921;SDS011;55959;51.244;5.724;2022-10-15T16:47:17;2.00;;;1.10;;
68921;SDS011;55959;51.244;5.724;2022-10-15T16:49:45;1.95;;;1.20;;
68921;SDS011;55959;51.244;5.724;2022-10-15T16:52:11;1.10;;;1.00;;
68921;SDS011;55959;51.244;5.724;2022-10-15T16:54:37;1.00;;;0.90;;
68921;SDS011;55959;51.244;5.724;2022-10-15T16:57:03;0.90;;;0.80;;
68921;SDS011;55959;51.244;5.724;2022-10-15T16:59:29;1.47;;;0.93;;
68921;SDS011;55959;51.244;5.724;2022-10-15T17:01:54;1.47;;;0.77;;
68921;SDS011;55959;51.244;5.724;2022-10-15T17:04:20;1.00;;;0.80;;
68921;SDS011;55959;51.244;5.724;2022-10-15T17:06:46;1.57;;;1.10;;
68921;SDS011;55959;51.244;5.724;2022-10-15T17:09:11;2.70;;;1.00;;
68921;SDS011;55959;51.244;5.724;2022-10-15T17:11:38;1.33;;;1.00;;
68921;SDS011;55959;51.244;5.724;2022-10-15T17:14:08;0.97;;;0.90;;
68921;SDS011;55959;51.244;5.724;2022-10-15T17:16:37;1.67;;;1.20;;
68921;SDS011;55959;51.244;5.724;2022-10-15T17:19:11;2.20;;;1.87;;
68921;SDS011;55959;51.244;5.724;2022-10-15T17:21:41;1.97;;;1.70;;
68921;SDS011;55959;51.244;5.724;2022-10-15T17:24:07;1.47;;;1.37;;
68921;SDS011;55959;51.244;5.724;2022-10-15T17:26:36;1.43;;;1.33;;
68921;SDS011;55959;51.244;5.724;2022-10-15T17:29:05;1.90;;;1.60;;
68921;SDS011;55959;51.244;5.724;2022-10-15T17:31:44;1.90;;;1.60;;
68921;SDS011;55959;51.244;5.724;2022-10-15T17:34:11;2.00;;;1.67;;
68921;SDS011;55959;51.244;5.724;2022-10-15T17:36:41;1.63;;;1.53;;
68921;SDS011;55959;51.244;5.724;2022-10-15T17:39:11;2.00;;;1.70;;
68921;SDS011;55959;51.244;5.724;2022-10-15T17:41:41;1.93;;;1.57;;
68921;SDS011;55959;51.244;5.724;2022-10-15T17:44:06;3.00;;;1.67;;
68921;SDS011;55959;51.244;5.724;2022-10-15T17:46:35;1.87;;;1.33;;